sensor_id;sensor_type;location;lat;lon;timestamp;pressure;altitude;pressure_sealevel;temperature;humidity
45991;BME280;31721;41.740;-88.000;2023-07-13T00:02:05;97943.93;;;24.63;66.58
45991;BME280;31721;41.740;-88.000;2023-07-13T00:04:34;97947.41;;;24.65;66.42
45991;BME280;31721;41.740;-88.000;2023-07-13T00:07:02;97954.53;;;24.76;66.57
45991;BME280;31721;41.740;-88.000;2023-07-13T00:09:30;97927.50;;;24.60;67.19
45991;BME280;31721;41.740;-88.000;2023-07-13T00:11:58;97935.49;;;24.74;66.96
45991;BME280;31721;41.740;-88.000;2023-07-13T00:14:28;97962.48;;;24.64;67.26
45991;BME280;31721;41.740;-88.000;2023-07-13T00:16:56;97968.53;;;24.73;67.36
45991;BME280;31721;41.740;-88.000;2023-07-13T00:19:24;97991.35;;;24.46;67.68
45991;BME280;31721;41.740;-88.000;2023-07-13T00:21:52;98024.98;;;24.04;68.89
45991;BME280;31721;41.740;-88.000;2023-07-13T00:24:19;98031.29;;;23.90;67.55
45991;BME280;31721;41.740;-88.000;2023-07-13T00:26:47;98036.20;;;24.00;66.57
45991;BME280;31721;41.740;-88.000;2023-07-13T00:29:15;98053.08;;;23.86;66.83
45991;BME280;31721;41.740;-88.000;2023-07-13T00:31:42;98054.33;;;23.71;66.86
45991;BME280;31721;41.740;-88.000;2023-07-13T00:34:10;98054.70;;;23.72;66.30
45991;BME280;31721;41.740;-88.000;2023-07-13T00:36:37;98060.60;;;23.63;65.89
45991;BME280;31721;41.740;-88.000;2023-07-13T00:39:05;98063.49;;;23.47;66.03
45991;BME280;31721;41.740;-88.000;2023-07-13T00:41:33;98070.93;;;23.22;65.36
45991;BME280;31721;41.740;-88.000;2023-07-13T00:44:00;98069.14;;;23.14;66.18
45991;BME280;31721;41.740;-88.000;2023-07-13T00:46:29;98074.59;;;23.08;65.89
45991;BME280;31721;41.740;-88.000;2023-07-13T00:49:01;98083.26;;;22.92;65.88
45991;BME280;31721;41.740;-88.000;2023-07-13T00:51:34;98085.47;;;22.77;66.30
45991;BME280;31721;41.740;-88.000;2023-07-13T00:54:06;98090.10;;;22.75;66.39
45991;BME280;31721;41.740;-88.000;2023-07-13T00:56:38;98092.85;;;22.75;65.43
45991;BME280;31721;41.740;-88.000;2023-07-13T00:59:07;98092.36;;;22.65;66.04
45991;BME280;31721;41.740;-88.000;2023-07-13T01:01:37;98092.27;;;22.54;66.03
45991;BME280;31721;41.740;-88.000;2023-07-13T01:04:06;98090.14;;;22.46;66.02
45991;BME280;31721;41.740;-88.000;2023-07-13T01:06:34;98094.59;;;22.54;65.74
45991;BME280;31721;41.740;-88.000;2023-07-13T01:09:03;98093.02;;;22.37;65.75
45991;BME280;31721;41.740;-88.000;2023-07-13T01:11:32;98092.78;;;22.31;65.05
45991;BME280;31721;41.740;-88.000;2023-07-13T01:13:59;98089.62;;;22.33;65.60
45991;BME280;31721;41.740;-88.000;2023-07-13T01:16:30;98090.32;;;22.27;65.29
45991;BME280;31721;41.740;-88.000;2023-07-13T01:19:00;98092.94;;;22.20;65.30
45991;BME280;31721;41.740;-88.000;2023-07-13T01:21:33;98099.92;;;22.11;64.82
45991;BME280;31721;41.740;-88.000;2023-07-13T01:24:02;98107.70;;;21.99;64.84
45991;BME280;31721;41.740;-88.000;2023-07-13T01:26:29;98112.80;;;21.99;64.88
45991;BME280;31721;41.740;-88.000;2023-07-13T01:28:57;98115.65;;;21.87;64.71
45991;BME280;31721;41.740;-88.000;2023-07-13T01:31:25;98120.01;;;21.82;64.93
45991;BME280;31721;41.740;-88.000;2023-07-13T01:33:53;98134.69;;;21.80;65.04
45991;BME280;31721;41.740;-88.000;2023-07-13T01:36:21;98145.70;;;21.71;65.08
45991;BME280;31721;41.740;-88.000;2023-07-13T01:38:49;98151.40;;;21.54;65.45
45991;BME280;31721;41.740;-88.000;2023-07-13T01:41:18;98157.86;;;21.51;65.02
45991;BME280;31721;41.740;-88.000;2023-07-13T01:43:45;98166.36;;;21.66;64.86
45991;BME280;31721;41.740;-88.000;2023-07-13T01:46:13;98173.63;;;21.48;65.04
45991;BME280;31721;41.740;-88.000;2023-07-13T01:48:40;98181.72;;;21.53;64.60
45991;BME280;31721;41.740;-88.000;2023-07-13T01:51:08;98188.09;;;21.56;64.36
45991;BME280;31721;41.740;-88.000;2023-07-13T01:53:36;98199.57;;;21.54;64.43
45991;BME280;31721;41.740;-88.000;2023-07-13T01:56:05;98195.93;;;21.19;64.70
45991;BME280;31721;41.740;-88.000;2023-07-13T01:58:32;98202.29;;;21.20;64.75
45991;BME280;31721;41.740;-88.000;2023-07-13T02:01:00;98202.65;;;21.07;64.36
45991;BME280;31721;41.740;-88.000;2023-07-13T02:03:28;98203.44;;;20.99;64.47
45991;BME280;31721;41.740;-88.000;2023-07-13T02:05:56;98212.32;;;21.04;64.22
45991;BME280;31721;41.740;-88.000;2023-07-13T02:08:24;98213.59;;;20.99;64.31
45991;BME280;31721;41.740;-88.000;2023-07-13T02:10:52;98223.48;;;20.80;64.67
45991;BME280;31721;41.740;-88.000;2023-07-13T02:13:19;98232.34;;;20.83;64.27
45991;BME280;31721;41.740;-88.000;2023-07-13T02:15:50;98239.08;;;20.89;64.40
45991;BME280;31721;41.740;-88.000;2023-07-13T02:18:18;98250.11;;;20.72;64.65
45991;BME280;31721;41.740;-88.000;2023-07-13T02:20:47;98248.89;;;20.69;64.50
45991;BME280;31721;41.740;-88.000;2023-07-13T02:23:15;98251.73;;;20.65;64.53
45991;BME280;31721;41.740;-88.000;2023-07-13T02:25:43;98258.97;;;20.57;64.76
45991;BME280;31721;41.740;-88.000;2023-07-13T02:28:11;98260.23;;;20.66;64.77
45991;BME280;31721;41.740;-88.000;2023-07-13T02:30:40;98263.57;;;20.76;64.96
45991;BME280;31721;41.740;-88.000;2023-07-13T02:33:08;98271.70;;;20.61;64.61
45991;BME280;31721;41.740;-88.000;2023-07-13T02:35:36;98275.63;;;20.44;64.87
45991;BME280;31721;41.740;-88.000;2023-07-13T02:38:03;98279.57;;;20.29;65.01
45991;BME280;31721;41.740;-88.000;2023-07-13T02:40:31;98286.22;;;20.32;65.25
45991;BME280;31721;41.740;-88.000;2023-07-13T02:43:00;98293.76;;;20.16;65.12
45991;BME280;31721;41.740;-88.000;2023-07-13T02:45:28;98307.53;;;20.22;65.01
45991;BME280;31721;41.740;-88.000;2023-07-13T02:47:56;98312.61;;;20.03;64.95
45991;BME280;31721;41.740;-88.000;2023-07-13T02:50:24;98305.21;;;20.15;64.99
45991;BME280;31721;41.740;-88.000;2023-07-13T02:52:51;98305.63;;;19.93;65.19
45991;BME280;31721;41.740;-88.000;2023-07-13T02:55:19;98307.52;;;19.83;65.16
45991;BME280;31721;41.740;-88.000;2023-07-13T02:57:47;98308.05;;;19.90;65.10
45991;BME280;31721;41.740;-88.000;2023-07-13T03:00:15;98311.60;;;19.88;65.32
45991;BME280;31721;41.740;-88.000;2023-07-13T03:02:43;98315.27;;;19.86;65.38
45991;BME280;31721;41.740;-88.000;2023-07-13T03:05:11;98313.55;;;19.82;65.15
45991;BME280;31721;41.740;-88.000;2023-07-13T03:07:39;98314.01;;;19.95;65.07
45991;BME280;31721;41.740;-88.000;2023-07-13T03:10:08;98313.91;;;19.91;64.87
45991;BME280;31721;41.740;-88.000;2023-07-13T03:12:36;98322.08;;;19.65;65.09
45991;BME280;31721;41.740;-88.000;2023-07-13T03:15:04;98329.82;;;19.58;64.85
45991;BME280;31721;41.740;-88.000;2023-07-13T03:17:32;98335.75;;;19.52;64.66
45991;BME280;31721;41.740;-88.000;2023-07-13T03:20:00;98342.58;;;19.14;64.95
45991;BME280;31721;41.740;-88.000;2023-07-13T03:22:28;98346.21;;;19.31;64.86
45991;BME280;31721;41.740;-88.000;2023-07-13T03:24:56;98349.43;;;19.39;64.92
45991;BME280;31721;41.740;-88.000;2023-07-13T03:27:23;98352.53;;;19.48;64.80
45991;BME280;31721;41.740;-88.000;2023-07-13T03:29:51;98355.70;;;19.35;64.89
45991;BME280;31721;41.740;-88.000;2023-07-13T03:32:18;98359.76;;;19.55;64.70
45991;BME280;31721;41.740;-88.000;2023-07-13T03:34:46;98359.80;;;19.40;64.60
45991;BME280;31721;41.740;-88.000;2023-07-13T03:37:14;98368.78;;;19.38;64.73
45991;BME280;31721;41.740;-88.000;2023-07-13T03:39:42;98372.96;;;19.19;64.57
45991;BME280;31721;41.740;-88.000;2023-07-13T03:42:09;98374.99;;;19.28;64.62
45991;BME280;31721;41.740;-88.000;2023-07-13T03:44:38;98384.01;;;19.28;64.61
45991;BME280;31721;41.740;-88.000;2023-07-13T03:47:06;98388.11;;;19.30;64.90
45991;BME280;31721;41.740;-88.000;2023-07-13T03:49:34;98389.25;;;19.29;64.66
45991;BME280;31721;41.740;-88.000;2023-07-13T03:52:02;98390.64;;;19.31;64.65
45991;BME280;31721;41.740;-88.000;2023-07-13T03:54:30;98389.57;;;19.22;64.42
45991;BME280;31721;41.740;-88.000;2023-07-13T03:56:58;98387.37;;;19.27;64.59
45991;BME280;31721;41.740;-88.000;2023-07-13T03:59:26;98390.24;;;19.28;64.39
45991;BME280;31721;41.740;-88.000;2023-07-13T04:01:53;98392.48;;;19.33;64.48
45991;BME280;31721;41.740;-88.000;2023-07-13T04:04:21;98389.38;;;19.05;64.22
45991;BME280;31721;41.740;-88.000;2023-07-13T04:06:49;98385.76;;;19.08;64.08
45991;BME280;31721;41.740;-88.000;2023-07-13T04:09:17;98387.30;;;19.06;64.56
45991;BME280;31721;41.740;-88.000;2023-07-13T04:11:45;98389.92;;;18.88;64.60
45991;BME280;31721;41.740;-88.000;2023-07-13T04:14:13;98387.70;;;18.99;64.42
45991;BME280;31721;41.740;-88.000;2023-07-13T04:16:41;98390.14;;;19.07;64.79
45991;BME280;31721;41.740;-88.000;2023-07-13T04:19:09;98391.16;;;19.09;64.74
45991;BME280;31721;41.740;-88.000;2023-07-13T04:21:37;98399.95;;;19.15;64.60
45991;BME280;31721;41.740;-88.000;2023-07-13T04:24:06;98410.63;;;19.22;64.40
45991;BME280;31721;41.740;-88.000;2023-07-13T04:26:34;98414.55;;;19.22;64.22
45991;BME280;31721;41.740;-88.000;2023-07-13T04:29:02;98414.55;;;19.16;64.03
45991;BME280;31721;41.740;-88.000;2023-07-13T04:31:30;98417.18;;;19.02;64.23
45991;BME280;31721;41.740;-88.000;2023-07-13T04:33:59;98417.43;;;19.06;64.43
45991;BME280;31721;41.740;-88.000;2023-07-13T04:36:27;98415.02;;;19.10;64.34
45991;BME280;31721;41.740;-88.000;2023-07-13T04:38:55;98414.98;;;19.04;64.38
45991;BME280;31721;41.740;-88.000;2023-07-13T04:41:23;98411.83;;;19.15;64.44
45991;BME280;31721;41.740;-88.000;2023-07-13T04:43:51;98417.43;;;18.88;64.31
45991;BME280;31721;41.740;-88.000;2023-07-13T04:46:19;98419.39;;;18.82;64.27
45991;BME280;31721;41.740;-88.000;2023-07-13T04:48:49;98418.64;;;18.84;64.25
45991;BME280;31721;41.740;-88.000;2023-07-13T04:51:17;98424.54;;;18.88;64.48
45991;BME280;31721;41.740;-88.000;2023-07-13T04:53:45;98428.62;;;18.86;64.45
45991;BME280;31721;41.740;-88.000;2023-07-13T04:56:13;98435.24;;;18.83;64.57
45991;BME280;31721;41.740;-88.000;2023-07-13T04:58:40;98438.30;;;18.96;64.60
45991;BME280;31721;41.740;-88.000;2023-07-13T05:01:08;98442.17;;;18.97;64.58
45991;BME280;31721;41.740;-88.000;2023-07-13T05:03:36;98444.09;;;18.93;64.52
45991;BME280;31721;41.740;-88.000;2023-07-13T05:06:05;98446.02;;;18.87;64.58
45991;BME280;31721;41.740;-88.000;2023-07-13T05:08:33;98444.78;;;18.95;64.51
45991;BME280;31721;41.740;-88.000;2023-07-13T05:11:01;98443.96;;;18.87;64.28
45991;BME280;31721;41.740;-88.000;2023-07-13T05:13:29;98442.24;;;19.00;64.37
45991;BME280;31721;41.740;-88.000;2023-07-13T05:16:00;98436.84;;;18.99;64.28
45991;BME280;31721;41.740;-88.000;2023-07-13T05:18:29;98432.62;;;18.98;64.17
45991;BME280;31721;41.740;-88.000;2023-07-13T05:20:59;98427.59;;;18.99;64.12
45991;BME280;31721;41.740;-88.000;2023-07-13T05:23:28;98422.06;;;19.00;64.26
45991;BME280;31721;41.740;-88.000;2023-07-13T05:25:56;98427.94;;;18.88;64.18
45991;BME280;31721;41.740;-88.000;2023-07-13T05:28:24;98434.48;;;18.95;64.15
45991;BME280;31721;41.740;-88.000;2023-07-13T05:30:53;98439.61;;;18.93;63.90
45991;BME280;31721;41.740;-88.000;2023-07-13T05:33:20;98444.80;;;18.92;64.02
45991;BME280;31721;41.740;-88.000;2023-07-13T05:35:48;98446.24;;;19.11;63.76
45991;BME280;31721;41.740;-88.000;2023-07-13T05:38:16;98448.27;;;19.05;64.01
45991;BME280;31721;41.740;-88.000;2023-07-13T05:40:44;98442.20;;;19.03;64.26
45991;BME280;31721;41.740;-88.000;2023-07-13T05:43:12;98436.30;;;18.89;64.31
45991;BME280;31721;41.740;-88.000;2023-07-13T05:45:40;98435.60;;;19.05;64.48
45991;BME280;31721;41.740;-88.000;2023-07-13T05:48:08;98432.48;;;18.99;64.34
45991;BME280;31721;41.740;-88.000;2023-07-13T05:50:36;98435.65;;;19.04;64.18
45991;BME280;31721;41.740;-88.000;2023-07-13T05:53:04;98441.93;;;19.06;64.07
45991;BME280;31721;41.740;-88.000;2023-07-13T05:55:32;98445.58;;;19.00;63.96
45991;BME280;31721;41.740;-88.000;2023-07-13T05:58:01;98445.02;;;19.01;64.05
45991;BME280;31721;41.740;-88.000;2023-07-13T06:00:29;98445.74;;;19.00;64.06
45991;BME280;31721;41.740;-88.000;2023-07-13T06:02:57;98441.29;;;18.98;64.10
45991;BME280;31721;41.740;-88.000;2023-07-13T06:05:24;98441.59;;;19.02;63.90
45991;BME280;31721;41.740;-88.000;2023-07-13T06:07:52;98442.73;;;19.01;63.93
45991;BME280;31721;41.740;-88.000;2023-07-13T06:10:19;98442.95;;;18.95;64.26
45991;BME280;31721;41.740;-88.000;2023-07-13T06:12:47;98439.45;;;19.04;64.18
45991;BME280;31721;41.740;-88.000;2023-07-13T06:15:15;98437.48;;;19.01;64.17
45991;BME280;31721;41.740;-88.000;2023-07-13T06:17:42;98438.71;;;19.03;64.00
45991;BME280;31721;41.740;-88.000;2023-07-13T06:20:10;98438.23;;;18.96;63.90
45991;BME280;31721;41.740;-88.000;2023-07-13T06:22:37;98438.76;;;18.89;63.74
45991;BME280;31721;41.740;-88.000;2023-07-13T06:25:06;98440.42;;;18.93;63.96
45991;BME280;31721;41.740;-88.000;2023-07-13T06:27:34;98439.49;;;18.89;64.10
45991;BME280;31721;41.740;-88.000;2023-07-13T06:30:01;98436.04;;;18.94;64.00
45991;BME280;31721;41.740;-88.000;2023-07-13T06:32:29;98435.60;;;18.97;64.17
45991;BME280;31721;41.740;-88.000;2023-07-13T06:34:57;98431.81;;;18.86;63.93
45991;BME280;31721;41.740;-88.000;2023-07-13T06:37:24;98422.91;;;18.93;64.03
45991;BME280;31721;41.740;-88.000;2023-07-13T06:39:52;98427.47;;;18.98;63.85
45991;BME280;31721;41.740;-88.000;2023-07-13T06:42:20;98431.37;;;19.00;64.05
45991;BME280;31721;41.740;-88.000;2023-07-13T06:44:47;98431.89;;;19.02;63.91
45991;BME280;31721;41.740;-88.000;2023-07-13T06:47:15;98434.28;;;18.87;63.76
45991;BME280;31721;41.740;-88.000;2023-07-13T06:49:43;98433.27;;;18.90;63.72
45991;BME280;31721;41.740;-88.000;2023-07-13T06:52:11;98427.43;;;18.64;63.59
45991;BME280;31721;41.740;-88.000;2023-07-13T06:54:39;98422.08;;;18.63;63.72
45991;BME280;31721;41.740;-88.000;2023-07-13T06:57:06;98422.51;;;18.71;63.76
45991;BME280;31721;41.740;-88.000;2023-07-13T06:59:34;98422.81;;;18.72;63.69
45991;BME280;31721;41.740;-88.000;2023-07-13T07:02:02;98425.95;;;18.84;63.78
45991;BME280;31721;41.740;-88.000;2023-07-13T07:04:31;98430.23;;;18.95;63.36
45991;BME280;31721;41.740;-88.000;2023-07-13T07:06:59;98426.79;;;19.01;63.41
45991;BME280;31721;41.740;-88.000;2023-07-13T07:09:27;98427.00;;;18.87;63.41
45991;BME280;31721;41.740;-88.000;2023-07-13T07:11:54;98424.99;;;18.92;63.73
45991;BME280;31721;41.740;-88.000;2023-07-13T07:14:22;98423.33;;;18.94;63.62
45991;BME280;31721;41.740;-88.000;2023-07-13T07:16:49;98422.27;;;18.95;63.75
45991;BME280;31721;41.740;-88.000;2023-07-13T07:19:17;98424.74;;;19.07;63.77
45991;BME280;31721;41.740;-88.000;2023-07-13T07:21:46;98428.36;;;19.00;63.69
45991;BME280;31721;41.740;-88.000;2023-07-13T07:24:14;98429.33;;;19.05;63.88
45991;BME280;31721;41.740;-88.000;2023-07-13T07:26:42;98434.63;;;19.00;63.68
45991;BME280;31721;41.740;-88.000;2023-07-13T07:29:09;98435.06;;;19.02;63.72
45991;BME280;31721;41.740;-88.000;2023-07-13T07:31:37;98439.55;;;19.03;63.82
45991;BME280;31721;41.740;-88.000;2023-07-13T07:34:04;98437.99;;;19.08;63.41
45991;BME280;31721;41.740;-88.000;2023-07-13T07:36:33;98438.75;;;19.05;63.33
45991;BME280;31721;41.740;-88.000;2023-07-13T07:39:01;98443.77;;;19.07;63.40
45991;BME280;31721;41.740;-88.000;2023-07-13T07:41:29;98442.59;;;19.02;63.16
45991;BME280;31721;41.740;-88.000;2023-07-13T07:43:57;98442.26;;;19.05;63.24
45991;BME280;31721;41.740;-88.000;2023-07-13T07:46:25;98442.89;;;19.04;63.43
45991;BME280;31721;41.740;-88.000;2023-07-13T07:48:52;98445.83;;;19.07;63.44
45991;BME280;31721;41.740;-88.000;2023-07-13T07:51:20;98445.18;;;19.08;63.48
45991;BME280;31721;41.740;-88.000;2023-07-13T07:53:48;98446.95;;;19.11;63.16
45991;BME280;31721;41.740;-88.000;2023-07-13T07:56:16;98446.26;;;19.09;63.34
45991;BME280;31721;41.740;-88.000;2023-07-13T07:58:44;98448.83;;;19.09;63.15
45991;BME280;31721;41.740;-88.000;2023-07-13T08:01:12;98452.10;;;19.09;63.35
45991;BME280;31721;41.740;-88.000;2023-07-13T08:03:39;98451.62;;;19.10;63.48
45991;BME280;31721;41.740;-88.000;2023-07-13T08:06:07;98450.53;;;19.10;63.44
45991;BME280;31721;41.740;-88.000;2023-07-13T08:08:35;98450.23;;;19.04;63.17
45991;BME280;31721;41.740;-88.000;2023-07-13T08:11:04;98449.16;;;19.01;63.03
45991;BME280;31721;41.740;-88.000;2023-07-13T08:13:32;98445.52;;;18.93;63.36
45991;BME280;31721;41.740;-88.000;2023-07-13T08:16:00;98443.21;;;19.01;63.29
45991;BME280;31721;41.740;-88.000;2023-07-13T08:18:28;98440.46;;;19.01;63.63
45991;BME280;31721;41.740;-88.000;2023-07-13T08:20:55;98438.40;;;19.05;63.72
45991;BME280;31721;41.740;-88.000;2023-07-13T08:23:23;98432.40;;;19.04;63.24
45991;BME280;31721;41.740;-88.000;2023-07-13T08:25:51;98429.71;;;19.05;63.37
45991;BME280;31721;41.740;-88.000;2023-07-13T08:28:19;98427.49;;;19.02;63.27
45991;BME280;31721;41.740;-88.000;2023-07-13T08:30:47;98422.34;;;18.95;63.27
45991;BME280;31721;41.740;-88.000;2023-07-13T08:33:15;98421.36;;;19.05;63.07
45991;BME280;31721;41.740;-88.000;2023-07-13T08:35:45;98419.57;;;19.05;63.25
45991;BME280;31721;41.740;-88.000;2023-07-13T08:38:13;98418.31;;;19.06;63.15
45991;BME280;31721;41.740;-88.000;2023-07-13T08:40:42;98413.65;;;19.04;63.07
45991;BME280;31721;41.740;-88.000;2023-07-13T08:43:15;98412.64;;;19.03;63.02
45991;BME280;31721;41.740;-88.000;2023-07-13T08:45:47;98412.77;;;19.02;63.20
45991;BME280;31721;41.740;-88.000;2023-07-13T08:48:20;98410.73;;;19.03;63.25
45991;BME280;31721;41.740;-88.000;2023-07-13T08:50:56;98421.41;;;19.02;63.16
45991;BME280;31721;41.740;-88.000;2023-07-13T08:53:29;98430.82;;;19.02;62.87
45991;BME280;31721;41.740;-88.000;2023-07-13T08:56:01;98433.62;;;19.00;63.05
45991;BME280;31721;41.740;-88.000;2023-07-13T08:58:29;98437.97;;;19.05;62.93
45991;BME280;31721;41.740;-88.000;2023-07-13T09:01:04;98439.62;;;18.97;62.93
45991;BME280;31721;41.740;-88.000;2023-07-13T09:03:40;98449.22;;;19.00;62.86
45991;BME280;31721;41.740;-88.000;2023-07-13T09:06:12;98453.88;;;18.97;62.64
45991;BME280;31721;41.740;-88.000;2023-07-13T09:08:51;98458.36;;;18.89;62.57
45991;BME280;31721;41.740;-88.000;2023-07-13T09:11:36;98466.53;;;18.80;62.54
45991;BME280;31721;41.740;-88.000;2023-07-13T09:14:32;98468.45;;;18.92;62.57
45991;BME280;31721;41.740;-88.000;2023-07-13T09:19:41;98462.99;;;18.85;62.39
45991;BME280;31721;41.740;-88.000;2023-07-13T09:22:15;98471.36;;;18.78;62.47
45991;BME280;31721;41.740;-88.000;2023-07-13T09:24:53;98472.17;;;18.74;62.50
45991;BME280;31721;41.740;-88.000;2023-07-13T09:27:27;98473.40;;;18.72;62.59
45991;BME280;31721;41.740;-88.000;2023-07-13T09:30:04;98478.18;;;18.75;62.68
45991;BME280;31721;41.740;-88.000;2023-07-13T09:32:40;98482.30;;;18.85;62.90
45991;BME280;31721;41.740;-88.000;2023-07-13T09:35:11;98487.11;;;18.69;62.82
45991;BME280;31721;41.740;-88.000;2023-07-13T09:37:39;98494.21;;;18.82;62.78
45991;BME280;31721;41.740;-88.000;2023-07-13T09:40:24;98494.08;;;18.76;62.79
45991;BME280;31721;41.740;-88.000;2023-07-13T09:42:53;98493.57;;;18.63;62.50
45991;BME280;31721;41.740;-88.000;2023-07-13T09:45:28;98487.61;;;18.71;62.64
45991;BME280;31721;41.740;-88.000;2023-07-13T09:48:03;98491.08;;;18.73;62.83
45991;BME280;31721;41.740;-88.000;2023-07-13T09:50:32;98497.01;;;18.93;62.40
45991;BME280;31721;41.740;-88.000;2023-07-13T09:53:01;98496.47;;;18.75;62.37
45991;BME280;31721;41.740;-88.000;2023-07-13T09:55:31;98491.69;;;18.77;62.39
45991;BME280;31721;41.740;-88.000;2023-07-13T09:58:03;98494.23;;;18.61;62.58
45991;BME280;31721;41.740;-88.000;2023-07-13T10:00:32;98492.59;;;18.62;62.85
45991;BME280;31721;41.740;-88.000;2023-07-13T10:03:02;98491.75;;;18.62;63.08
45991;BME280;31721;41.740;-88.000;2023-07-13T10:05:38;98491.50;;;18.67;62.66
45991;BME280;31721;41.740;-88.000;2023-07-13T10:08:12;98486.61;;;18.64;62.86
45991;BME280;31721;41.740;-88.000;2023-07-13T10:10:42;98488.32;;;18.64;62.74
45991;BME280;31721;41.740;-88.000;2023-07-13T10:13:28;98489.23;;;18.63;62.57
45991;BME280;31721;41.740;-88.000;2023-07-13T10:15:58;98483.07;;;18.61;62.47
45991;BME280;31721;41.740;-88.000;2023-07-13T10:18:28;98483.40;;;18.60;62.76
45991;BME280;31721;41.740;-88.000;2023-07-13T10:21:10;98490.32;;;18.63;62.66
45991;BME280;31721;41.740;-88.000;2023-07-13T10:23:39;98495.08;;;18.51;62.31
45991;BME280;31721;41.740;-88.000;2023-07-13T10:26:13;98500.38;;;18.54;62.53
45991;BME280;31721;41.740;-88.000;2023-07-13T10:28:45;98507.64;;;18.44;62.49
45991;BME280;31721;41.740;-88.000;2023-07-13T10:31:15;98506.36;;;18.36;62.60
45991;BME280;31721;41.740;-88.000;2023-07-13T10:33:44;98511.05;;;18.32;62.27
45991;BME280;31721;41.740;-88.000;2023-07-13T10:36:16;98507.78;;;18.30;62.48
45991;BME280;31721;41.740;-88.000;2023-07-13T10:38:46;98510.62;;;18.37;62.36
45991;BME280;31721;41.740;-88.000;2023-07-13T10:41:20;98513.22;;;18.33;62.51
45991;BME280;31721;41.740;-88.000;2023-07-13T10:43:52;98518.41;;;18.35;62.51
45991;BME280;31721;41.740;-88.000;2023-07-13T10:46:23;98520.66;;;18.43;62.62
45991;BME280;31721;41.740;-88.000;2023-07-13T10:48:53;98524.64;;;18.31;62.70
45991;BME280;31721;41.740;-88.000;2023-07-13T10:51:22;98526.51;;;18.49;62.56
45991;BME280;31721;41.740;-88.000;2023-07-13T10:54:16;98529.21;;;18.46;62.83
45991;BME280;31721;41.740;-88.000;2023-07-13T10:56:45;98535.87;;;18.46;62.76
45991;BME280;31721;41.740;-88.000;2023-07-13T10:59:16;98532.86;;;18.56;62.97
45991;BME280;31721;41.740;-88.000;2023-07-13T11:01:55;98536.62;;;18.50;62.66
45991;BME280;31721;41.740;-88.000;2023-07-13T11:04:25;98542.94;;;18.50;62.83
45991;BME280;31721;41.740;-88.000;2023-07-13T11:06:58;98546.09;;;18.45;62.92
45991;BME280;31721;41.740;-88.000;2023-07-13T11:09:37;98547.34;;;18.42;62.87
45991;BME280;31721;41.740;-88.000;2023-07-13T11:12:26;98550.60;;;18.60;63.06
45991;BME280;31721;41.740;-88.000;2023-07-13T11:15:05;98547.78;;;18.55;63.07
45991;BME280;31721;41.740;-88.000;2023-07-13T11:17:38;98548.34;;;18.52;62.98
45991;BME280;31721;41.740;-88.000;2023-07-13T11:20:36;98549.51;;;18.64;62.81
45991;BME280;31721;41.740;-88.000;2023-07-13T11:23:28;98554.01;;;18.55;62.87
45991;BME280;31721;41.740;-88.000;2023-07-13T11:25:55;98555.30;;;18.57;62.99
45991;BME280;31721;41.740;-88.000;2023-07-13T11:28:25;98550.02;;;18.61;62.91
45991;BME280;31721;41.740;-88.000;2023-07-13T11:31:26;98548.88;;;18.54;63.01
45991;BME280;31721;41.740;-88.000;2023-07-13T11:34:00;98553.25;;;18.72;62.80
45991;BME280;31721;41.740;-88.000;2023-07-13T11:36:32;98556.19;;;18.73;62.49
45991;BME280;31721;41.740;-88.000;2023-07-13T11:39:10;98553.41;;;18.59;62.46
45991;BME280;31721;41.740;-88.000;2023-07-13T11:41:45;98552.27;;;18.61;62.42
45991;BME280;31721;41.740;-88.000;2023-07-13T11:44:19;98557.41;;;18.80;62.30
45991;BME280;31721;41.740;-88.000;2023-07-13T11:46:49;98561.31;;;18.75;62.22
45991;BME280;31721;41.740;-88.000;2023-07-13T11:49:18;98566.44;;;18.65;62.34
45991;BME280;31721;41.740;-88.000;2023-07-13T11:51:46;98567.33;;;18.71;62.44
45991;BME280;31721;41.740;-88.000;2023-07-13T11:54:23;98567.59;;;18.56;62.48
45991;BME280;31721;41.740;-88.000;2023-07-13T11:56:53;98571.30;;;18.71;62.43
45991;BME280;31721;41.740;-88.000;2023-07-13T11:59:22;98574.71;;;18.50;62.34
45991;BME280;31721;41.740;-88.000;2023-07-13T12:01:53;98577.92;;;18.51;62.37
45991;BME280;31721;41.740;-88.000;2023-07-13T12:04:25;98578.12;;;18.42;62.28
45991;BME280;31721;41.740;-88.000;2023-07-13T12:06:56;98579.39;;;18.34;62.37
45991;BME280;31721;41.740;-88.000;2023-07-13T12:09:27;98579.18;;;18.52;62.67
45991;BME280;31721;41.740;-88.000;2023-07-13T12:11:57;98581.64;;;18.44;62.72
45991;BME280;31721;41.740;-88.000;2023-07-13T12:14:25;98583.61;;;18.23;62.59
45991;BME280;31721;41.740;-88.000;2023-07-13T12:16:53;98585.52;;;18.35;62.88
45991;BME280;31721;41.740;-88.000;2023-07-13T12:19:24;98586.90;;;18.39;63.08
45991;BME280;31721;41.740;-88.000;2023-07-13T12:21:55;98591.20;;;18.29;62.96
45991;BME280;31721;41.740;-88.000;2023-07-13T12:24:25;98593.65;;;18.38;63.13
45991;BME280;31721;41.740;-88.000;2023-07-13T12:26:55;98598.44;;;18.34;63.08
45991;BME280;31721;41.740;-88.000;2023-07-13T12:29:26;98599.93;;;18.38;63.11
45991;BME280;31721;41.740;-88.000;2023-07-13T12:31:53;98593.68;;;18.47;62.88
45991;BME280;31721;41.740;-88.000;2023-07-13T12:34:23;98597.74;;;18.48;62.78
45991;BME280;31721;41.740;-88.000;2023-07-13T12:36:53;98604.28;;;18.45;62.96
45991;BME280;31721;41.740;-88.000;2023-07-13T12:39:24;98603.56;;;18.40;63.00
45991;BME280;31721;41.740;-88.000;2023-07-13T12:41:54;98604.85;;;18.39;62.93
45991;BME280;31721;41.740;-88.000;2023-07-13T12:44:41;98601.73;;;18.48;63.00
45991;BME280;31721;41.740;-88.000;2023-07-13T12:47:12;98602.51;;;18.79;62.38
45991;BME280;31721;41.740;-88.000;2023-07-13T12:49:42;98605.15;;;18.66;62.19
45991;BME280;31721;41.740;-88.000;2023-07-13T12:52:15;98605.72;;;18.55;62.46
45991;BME280;31721;41.740;-88.000;2023-07-13T12:54:54;98604.05;;;18.57;62.47
45991;BME280;31721;41.740;-88.000;2023-07-13T12:57:22;98604.05;;;18.67;62.47